Search for airport 
image banner adimage banner ad
image banner ad

ORMM - Basrah International Airport

Located in Basrah, Iraq

ICAO - ORMM, IATA - BSR

Data provided by Airmate  

General information

Coordinates: N30°32'56" E47°39'43"
Elevation is 11 feet MSL.
 
Rated:
View ratings: [VIEW]


View others Airports in Basra Governorate

Operational data

Open for public use
Current time UTC:
Current local time:
Weather
METAR: ORMM 122200Z 28007KT CAVOK 30/15 Q0998 NOSIG
TAF: TAF ORMM 122200Z 1300/1324 28004KT CAVOK
View NOTAMs / SUP AIP / TFR affecting this airport [VIEW]
Communications frequencies: [VIEW]

Runways:

RWY identifierQFULength (ft)Width (ft)SurfaceLDA (ft)
14138°13124148CON
3213146148

Airport contact information

Address: Basrah Iraq

Satellite view of ORMM